Time;durP1;ratioP1;P1;durP2;ratioP2;P2;SDS_P1;SDS_P2;PMS_P1;PMS_P2;Temp;Humidity;BMP_temperature;BMP_pressure;BME280_temperature;BME280_humidity;BME280_pressure;Samples;Min_cycle;Max_cycle;Signal;HPM_P1;HPM_P2
2022/04/02 00:02:16;;;;;;;10.80;9.00;;;;;;;-1.23;89.44;96783.91;106208;1277;22626;-70
2022/04/02 00:04:43;;;;;;;12.90;9.50;;;;;;;-1.22;89.31;96783.08;105947;1277;25317;-70
2022/04/02 00:07:10;;;;;;;11.00;8.30;;;;;;;-1.23;89.46;96779.79;105857;1277;138100;-70
2022/04/02 00:09:37;;;;;;;12.80;8.90;;;;;;;-1.23;89.56;96779.80;105961;1277;22554;-70
2022/04/02 00:12:18;;;;;;;10.60;7.50;;;;;;;-1.24;89.52;96774.50;105797;1277;137520;-70
2022/04/02 00:14:59;;;;;;;13.30;9.90;;;;;;;-1.25;89.54;96770.06;105882;1277;24495;-70
2022/04/02 00:17:26;;;;;;;13.00;8.80;;;;;;;-1.24;89.55;96771.05;105935;1277;138269;-70
2022/04/02 00:20:09;;;;;;;13.80;9.10;;;;;;;-1.25;89.45;96771.38;106064;1277;22711;-70
2022/04/02 00:22:36;;;;;;;13.00;8.80;;;;;;;-1.26;89.51;96769.41;106001;1277;24318;-70
2022/04/02 00:25:03;;;;;;;15.40;10.30;;;;;;;-1.27;89.45;96768.92;105812;1277;138527;-69
2022/04/02 00:27:45;;;;;;;12.60;8.80;;;;;;;-1.26;89.40;96773.23;105864;1277;32143;-70
2022/04/02 00:30:12;;;;;;;11.50;8.50;;;;;;;-1.26;89.05;96772.94;105840;1277;138048;-70
2022/04/02 00:32:40;;;;;;;12.20;9.00;;;;;;;-1.27;89.53;96773.78;105996;1277;23034;-70
2022/04/02 00:35:21;;;;;;;9.90;7.20;;;;;;;-1.27;89.68;96777.31;105848;1277;138311;-70
2022/04/02 00:37:48;;;;;;;10.40;8.10;;;;;;;-1.26;89.52;96776.31;106304;1277;24408;-70
2022/04/02 00:40:29;;;;;;;12.30;8.50;;;;;;;-1.26;89.60;96780.05;105933;1277;24311;-69
2022/04/02 00:42:56;;;;;;;11.80;9.10;;;;;;;-1.26;89.61;96782.56;105848;1277;137787;-70
2022/04/02 00:45:23;;;;;;;14.00;9.30;;;;;;;-1.26;89.28;96787.95;106052;1277;25264;-69
2022/04/02 00:47:50;;;;;;;14.10;8.10;;;;;;;-1.27;89.38;96787.45;105943;1277;139164;-69
2022/04/02 00:50:31;;;;;;;13.50;8.40;;;;;;;-1.26;89.52;96792.71;105962;1277;24033;-70
2022/04/02 00:53:00;;;;;;;11.30;8.00;;;;;;;-1.27;89.44;96796.98;105988;1277;22560;-69
2022/04/02 00:55:30;;;;;;;14.10;8.20;;;;;;;-1.28;89.38;96797.83;105842;1277;139163;-69
2022/04/02 00:58:12;;;;;;;11.40;8.50;;;;;;;-1.27;89.54;96798.39;105973;1277;22553;-69
2022/04/02 01:00:53;;;;;;;11.80;8.30;;;;;;;-1.27;89.53;96796.54;105787;1277;137674;-70
2022/04/02 01:03:36;;;;;;;11.10;8.10;;;;;;;-1.27;89.46;96798.22;106010;1277;22546;-69
2022/04/02 01:06:17;;;;;;;9.40;8.10;;;;;;;-1.27;89.48;96805.45;105756;1277;138374;-69
2022/04/02 01:09:00;;;;;;;10.60;8.10;;;;;;;-1.26;89.41;96803.39;105598;1277;31438;-70
2022/04/02 01:11:35;;;;;;;;;;;;;;;-1.27;89.43;96806.08;105999;1276;137611;-69
2022/04/02 01:14:16;;;;;;;12.60;7.40;;;;;;;-1.28;89.57;96807.17;105857;1277;25508;-70
2022/04/02 01:17:01;;;;;;;11.00;7.10;;;;;;;-1.28;89.37;96808.79;105904;1277;25264;-69
2022/04/02 01:19:42;;;;;;;10.70;7.90;;;;;;;-1.28;89.73;96802.86;105754;1277;137737;-70
2022/04/02 01:22:29;;;;;;;11.00;6.80;;;;;;;-1.27;89.54;96806.73;105837;1277;25306;-70
2022/04/02 01:25:00;;;;;;;10.40;8.10;;;;;;;-1.27;89.61;96807.52;105734;1277;138180;-69
2022/04/02 01:27:44;;;;;;;10.20;8.20;;;;;;;-1.27;89.71;96811.17;106155;1276;25274;-70
2022/04/02 01:30:13;;;;;;;9.70;7.60;;;;;;;-1.26;89.31;96809.31;105947;1277;138037;-70
2022/04/02 01:32:55;;;;;;;12.70;9.50;;;;;;;-1.27;89.32;96813.79;105969;1277;25361;-69
2022/04/02 01:35:36;;;;;;;9.10;6.90;;;;;;;-1.27;89.20;96815.08;105880;1277;139166;-69
2022/04/02 01:38:14;;;;;;;9.70;6.90;;;;;;;-1.26;89.23;96814.94;105967;1277;25324;-69
2022/04/02 01:40:41;;;;;;;9.10;7.50;;;;;;;-1.23;89.37;96818.34;105886;1277;24352;-69
2022/04/02 01:43:09;;;;;;;10.60;8.20;;;;;;;-1.24;89.33;96815.59;105951;1277;137595;-69
2022/04/02 01:45:38;;;;;;;10.40;7.60;;;;;;;-1.25;89.18;96814.40;105946;1277;22578;-69
2022/04/02 01:48:06;;;;;;;7.80;6.10;;;;;;;-1.24;89.11;96815.58;105558;1276;139758;-70
2022/04/02 01:50:55;;;;;;;9.70;7.30;;;;;;;-1.25;89.11;96814.38;106082;1277;25369;-69
2022/04/02 01:53:24;;;;;;;9.00;6.80;;;;;;;-1.26;89.13;96816.00;105896;1277;137533;-70
2022/04/02 01:56:09;;;;;;;9.60;6.50;;;;;;;-1.28;89.27;96816.09;105875;1278;24210;-69
2022/04/02 01:58:53;;;;;;;10.20;7.30;;;;;;;-1.28;89.17;96820.36;105961;1277;25351;-69
2022/04/02 02:01:36;;;;;;;9.90;7.20;;;;;;;-1.27;89.21;96823.81;105549;1279;138073;-69
2022/04/02 02:04:04;;;;;;;8.50;6.30;;;;;;;-1.27;89.23;96828.20;105795;1277;24224;-69
2022/04/02 02:06:31;;;;;;;9.30;7.50;;;;;;;-1.27;89.21;96829.89;105820;1278;137626;-70
2022/04/02 02:09:13;;;;;;;8.70;7.30;;;;;;;-1.27;89.32;96829.58;105934;1277;22564;-69
2022/04/02 02:12:14;;;;;;;9.30;6.40;;;;;;;-1.26;89.23;96829.28;105795;1277;138543;-69
2022/04/02 02:15:17;;;;;;;8.70;6.60;;;;;;;-1.26;89.16;96834.05;106006;1277;22541;-69
2022/04/02 02:17:47;;;;;;;10.70;7.20;;;;;;;-1.28;88.97;96832.52;105899;1277;138256;-69
2022/04/02 02:20:16;;;;;;;10.90;7.60;;;;;;;-1.30;89.12;96829.33;105973;1277;25324;-69
2022/04/02 02:22:57;;;;;;;12.90;6.90;;;;;;;-1.30;89.07;96829.90;105923;1277;22553;-69
2022/04/02 02:25:26;;;;;;;11.10;7.40;;;;;;;-1.29;89.34;96829.48;105955;1277;137604;-69
2022/04/02 02:27:53;;;;;;;9.00;7.20;;;;;;;-1.28;89.35;96832.52;105843;1277;22691;-69
2022/04/02 02:30:36;;;;;;;11.00;7.60;;;;;;;-1.28;89.23;96828.46;105942;1279;138237;-74
2022/04/02 02:36:19;;;;;;;11.50;8.30;;;;;;;-1.27;89.37;96832.56;105544;1279;137521;-71
2022/04/02 02:39:11;;;;;;;7.80;6.20;;;;;;;-1.27;89.12;96833.80;105895;1277;25261;-71
2022/04/02 02:41:44;;;;;;;7.80;6.50;;;;;;;-1.27;88.93;96836.06;105847;1277;138289;-71
2022/04/02 02:44:33;;;;;;;9.40;7.20;;;;;;;-1.27;88.87;96839.18;105891;1277;25335;-72
2022/04/02 02:47:11;;;;;;;9.30;6.70;;;;;;;-1.27;89.04;96838.90;105940;1277;25245;-69
2022/04/02 02:49:55;;;;;;;10.20;7.70;;;;;;;-1.28;89.00;96836.42;105740;1277;137368;-71
2022/04/02 02:52:40;;;;;;;8.10;6.70;;;;;;;-1.29;88.83;96842.73;105714;1277;25420;-71
2022/04/02 02:55:09;;;;;;;9.20;6.90;;;;;;;-1.27;88.90;96841.13;105552;1278;138745;-71
2022/04/02 02:57:50;;;;;;;8.80;6.80;;;;;;;-1.26;88.88;96842.55;105815;1277;25248;-71
2022/04/02 03:00:19;;;;;;;7.70;6.40;;;;;;;-1.26;88.98;96843.41;105887;1277;137557;-70
2022/04/02 03:02:50;;;;;;;8.00;5.90;;;;;;;-1.26;88.86;96844.80;105944;1277;24323;-68
2022/04/02 03:05:32;;;;;;;8.40;6.90;;;;;;;-1.26;88.87;96839.71;106013;1277;138496;-69
2022/04/02 03:08:16;;;;;;;6.50;4.90;;;;;;;-1.26;88.98;96844.31;105989;1277;23045;-68
2022/04/02 03:10:49;;;;;;;9.50;7.10;;;;;;;-1.27;88.94;96843.90;105909;1277;25371;-68
2022/04/02 03:13:21;;;;;;;8.30;5.60;;;;;;;-1.27;88.81;96849.20;105998;1277;137653;-69
2022/04/02 03:16:04;;;;;;;7.80;6.10;;;;;;;-1.26;88.77;96847.23;105963;1277;22543;-69
2022/04/02 03:18:45;;;;;;;7.70;6.00;;;;;;;-1.26;88.64;96849.93;105909;1277;137705;-69
2022/04/02 03:21:30;;;;;;;6.90;5.20;;;;;;;-1.26;88.76;96848.42;106002;1277;25373;-69
2022/04/02 03:23:59;;;;;;;10.90;6.80;;;;;;;-1.27;88.60;96850.20;105728;1277;138373;-69
2022/04/02 03:26:27;;;;;;;9.60;6.50;;;;;;;-1.27;88.68;96849.50;105887;1277;23905;-69
2022/04/02 03:28:55;;;;;;;8.10;5.40;;;;;;;-1.28;88.73;96849.02;105780;1278;23042;-69
2022/04/02 03:31:24;;;;;;;6.90;5.10;;;;;;;-1.28;88.82;96850.36;105872;1277;138089;-69
2022/04/02 03:34:08;;;;;;;8.60;6.20;;;;;;;-1.30;88.71;96849.70;105947;1277;25373;-69
2022/04/02 03:36:35;;;;;;;7.30;6.00;;;;;;;-1.31;88.66;96850.37;105860;1277;138093;-69
2022/04/02 03:39:18;;;;;;;8.40;5.80;;;;;;;-1.31;88.71;96851.90;105943;1277;25666;-69
2022/04/02 03:41:45;;;;;;;7.50;5.90;;;;;;;-1.30;88.91;96853.81;105817;1277;137602;-69
2022/04/02 03:44:13;;;;;;;7.60;6.20;;;;;;;-1.31;88.93;96852.95;105928;1277;22609;-69
2022/04/02 03:49:59;;;;;;;6.10;5.40;;;;;;;-1.29;88.93;96859.52;105825;1277;137561;-69
2022/04/02 03:52:37;;;;;;;8.10;5.70;;;;;;;-1.29;88.61;96862.93;105946;1277;24323;-69
2022/04/02 03:55:09;;;;;;;8.90;6.00;;;;;;;-1.31;88.69;96861.20;105857;1277;137699;-69
2022/04/02 03:57:50;;;;;;;8.80;5.70;;;;;;;-1.30;88.75;96859.90;105996;1274;22560;-69
2022/04/02 04:00:33;;;;;;;8.00;5.90;;;;;;;-1.30;88.85;96861.77;105898;1277;137939;-69
2022/04/02 04:03:20;;;;;;;8.10;6.10;;;;;;;-1.30;88.79;96869.67;105913;1277;25412;-69
2022/04/02 04:06:03;;;;;;;7.20;5.50;;;;;;;-1.30;88.69;96870.73;105923;1277;137829;-69
2022/04/02 04:08:47;;;;;;;10.70;6.80;;;;;;;-1.29;88.86;96875.75;105972;1276;25251;-69
2022/04/02 04:11:29;;;;;;;6.70;5.60;;;;;;;-1.28;88.72;96878.05;106368;1277;22556;-70
2022/04/02 04:14:10;;;;;;;7.00;5.80;;;;;;;-1.28;88.58;96880.92;105888;1277;137303;-69
2022/04/02 04:16:38;;;;;;;9.50;6.40;;;;;;;-1.29;88.78;96885.33;106006;1277;22576;-69
2022/04/02 04:19:06;;;;;;;8.10;5.30;;;;;;;-1.29;88.91;96886.30;105994;1277;138282;-69
2022/04/02 04:21:34;;;;;;;9.70;6.90;;;;;;;-1.29;88.95;96890.70;105949;1277;22568;-69
2022/04/02 04:24:16;;;;;;;7.70;6.20;;;;;;;-1.30;88.72;96895.32;105715;1277;137809;-69
2022/04/02 04:26:58;;;;;;;7.70;6.60;;;;;;;-1.33;88.81;96898.10;105964;1277;25420;-69
2022/04/02 04:29:25;;;;;;;10.20;6.30;;;;;;;-1.32;88.97;96892.35;105899;1277;25363;-69
2022/04/02 04:31:53;;;;;;;7.20;4.70;;;;;;;-1.32;88.86;96894.77;105858;1276;138103;-69
2022/04/02 04:34:20;;;;;;;8.40;6.00;;;;;;;-1.32;88.70;96896.42;105859;1279;23233;-69
2022/04/02 04:37:01;;;;;;;7.70;6.30;;;;;;;-1.33;88.93;96897.08;105741;1278;138075;-69
2022/04/02 04:39:28;;;;;;;8.10;5.80;;;;;;;-1.33;88.74;96900.57;106169;1276;24386;-69
2022/04/02 04:41:57;;;;;;;;;;;;;;;-1.32;88.69;96902.25;105941;1277;138243;-69
2022/04/02 04:44:43;;;;;;;5.50;4.90;;;;;;;-1.31;88.73;96902.71;105794;1278;25339;-70
2022/04/02 04:47:26;;;;;;;8.70;6.00;;;;;;;-1.32;88.60;96904.64;105875;1278;22563;-69
2022/04/02 04:49:53;;;;;;;8.40;5.70;;;;;;;-1.33;88.86;96901.85;106037;1276;137755;-69
2022/04/02 04:52:35;;;;;;;7.10;6.40;;;;;;;-1.32;88.91;96906.23;106197;1276;25184;-69
2022/04/02 04:55:04;;;;;;;8.10;6.70;;;;;;;-1.30;88.78;96906.16;106169;1277;138046;-69
2022/04/02 04:57:34;;;;;;;9.00;6.70;;;;;;;-1.28;88.85;96911.36;106320;1277;22556;-69
2022/04/02 05:00:12;;;;;;;10.40;6.90;;;;;;;-1.27;88.70;96913.63;105886;1277;138465;-69
2022/04/02 05:02:53;;;;;;;8.10;5.90;;;;;;;-1.26;88.72;96910.38;105936;1277;25349;-69
2022/04/02 05:05:46;;;;;;;6.50;5.50;;;;;;;-1.25;88.61;96914.44;105940;1277;23098;-70
2022/04/02 05:08:20;;;;;;;9.50;6.50;;;;;;;-1.24;88.59;96914.52;106054;1277;137761;-70
2022/04/02 05:10:49;;;;;;;6.90;5.80;;;;;;;-1.22;88.46;96910.48;106153;1277;22617;-70
2022/04/02 05:13:35;;;;;;;7.30;5.70;;;;;;;-1.22;88.55;96915.75;106117;1277;137741;-70
2022/04/02 05:16:03;;;;;;;7.90;6.10;;;;;;;-1.23;88.40;96917.81;106133;1277;22571;-70
2022/04/02 05:18:32;;;;;;;6.10;5.10;;;;;;;-1.23;88.52;96922.69;105637;1279;138387;-70
2022/04/02 05:20:59;;;;;;;8.00;6.60;;;;;;;-1.21;88.35;96925.37;105997;1277;22651;-70
2022/04/02 05:23:42;;;;;;;7.50;5.80;;;;;;;-1.21;88.65;96923.40;105873;1279;22634;-70
2022/04/02 05:26:10;;;;;;;7.90;7.10;;;;;;;-1.21;88.53;96923.92;105989;1278;137869;-70
2022/04/02 05:28:37;;;;;;;7.60;5.70;;;;;;;-1.22;88.47;96923.65;106180;1277;22539;-69
2022/04/02 05:31:04;;;;;;;9.50;6.70;;;;;;;-1.20;88.45;96925.38;105727;1279;138234;-69
2022/04/02 05:33:32;;;;;;;7.30;6.00;;;;;;;-1.20;88.36;96928.45;106176;1278;22728;-69
2022/04/02 05:35:59;;;;;;;7.80;5.40;;;;;;;-1.21;88.46;96932.43;105914;1277;137989;-70
2022/04/02 05:38:27;;;;;;;9.00;6.60;;;;;;;-1.20;88.49;96933.75;106065;1277;23436;-69
2022/04/02 05:40:55;;;;;;;12.20;6.90;;;;;;;-1.18;88.21;96935.15;106151;1277;25426;-69
2022/04/02 05:43:22;;;;;;;8.30;6.00;;;;;;;-1.17;88.48;96931.89;106012;1277;138253;-69
2022/04/02 05:46:03;;;;;;;8.10;6.10;;;;;;;-1.14;88.38;96932.30;105986;1277;22641;-69
2022/04/02 05:48:31;;;;;;;8.70;6.70;;;;;;;-1.12;88.20;96935.71;106133;1277;139301;-70
2022/04/02 05:51:12;;;;;;;8.40;4.90;;;;;;;-1.09;88.07;96940.26;106271;1277;25027;-69
2022/04/02 05:53:39;;;;;;;8.30;6.30;;;;;;;-1.06;87.93;96938.00;106014;1277;22540;-69
2022/04/02 05:56:24;;;;;;;9.10;7.20;;;;;;;-1.05;87.87;96945.77;105966;1277;137722;-69
2022/04/02 05:58:51;;;;;;;7.80;6.00;;;;;;;-1.02;87.71;96947.02;106029;1277;22561;-70
2022/04/02 06:01:34;;;;;;;9.90;7.20;;;;;;;-1.01;87.67;96948.21;105647;1277;138353;-70
2022/04/02 06:04:02;;;;;;;9.00;6.60;;;;;;;-0.98;87.52;96950.77;106064;1277;25311;-70
2022/04/02 06:06:34;;;;;;;7.40;5.50;;;;;;;-0.96;87.47;96949.02;105855;1277;138292;-70
2022/04/02 06:09:01;;;;;;;11.10;6.30;;;;;;;-0.95;87.11;96951.41;106100;1277;22548;-69
2022/04/02 06:11:29;;;;;;;10.00;6.70;;;;;;;-0.93;87.23;96952.40;106079;1276;25239;-69
2022/04/02 06:14:00;;;;;;;8.70;6.80;;;;;;;-0.93;86.80;96950.14;105890;1277;138393;-70
2022/04/02 06:16:27;;;;;;;7.90;6.20;;;;;;;-0.90;86.97;96957.73;105942;1278;22537;-69
2022/04/02 06:18:54;;;;;;;6.70;5.40;;;;;;;-0.86;87.02;96959.48;105917;1277;137330;-69
2022/04/02 06:21:21;;;;;;;9.50;6.20;;;;;;;-0.84;86.94;96954.18;106004;1277;25218;-69
2022/04/02 06:23:49;;;;;;;6.90;4.90;;;;;;;-0.83;86.53;96960.84;106169;1277;25338;-69
2022/04/02 06:26:16;;;;;;;6.30;5.00;;;;;;;-0.84;86.46;96957.77;106350;1277;139264;-69
2022/04/02 06:28:44;;;;;;;10.30;6.90;;;;;;;-0.84;86.36;96958.55;106340;1277;22580;-69
2022/04/02 06:31:12;;;;;;;7.60;5.20;;;;;;;-0.82;86.48;96959.65;106138;1277;138397;-69
2022/04/02 06:33:41;;;;;;;8.20;5.60;;;;;;;-0.84;85.99;96965.74;106314;1277;22712;-69
2022/04/02 06:36:09;;;;;;;7.80;5.80;;;;;;;-0.84;86.07;96963.14;106069;1277;138139;-69
2022/04/02 06:38:36;;;;;;;5.80;5.00;;;;;;;-0.86;86.38;96970.10;105802;1277;22691;-69
2022/04/02 06:41:03;;;;;;;7.40;5.40;;;;;;;-0.87;86.25;96973.48;105817;1277;25304;-69
2022/04/02 06:43:44;;;;;;;9.70;6.30;;;;;;;-0.87;86.43;96972.52;105763;1277;138260;-69
2022/04/02 06:46:17;;;;;;;8.00;5.70;;;;;;;-0.85;86.13;96973.23;105887;1277;22563;-69
2022/04/02 06:48:44;;;;;;;7.10;5.70;;;;;;;-0.83;86.10;96969.69;105656;1280;137794;-69
2022/04/02 06:51:11;;;;;;;7.00;5.20;;;;;;;-0.81;86.11;96972.35;105845;1277;24236;-69
2022/04/02 06:53:38;;;;;;;7.80;6.10;;;;;;;-0.80;86.09;96973.95;105710;1277;24325;-69
2022/04/02 06:56:20;;;;;;;9.70;6.70;;;;;;;-0.76;85.75;96972.38;105469;1278;137885;-71
2022/04/02 06:59:01;;;;;;;9.40;6.30;;;;;;;-0.73;85.67;96973.36;105552;1278;22716;-72
2022/04/02 07:01:28;;;;;;;8.00;6.60;;;;;;;-0.72;85.49;96975.41;105688;1278;137659;-71
2022/04/02 07:03:55;;;;;;;8.40;6.20;;;;;;;-0.70;85.74;96976.88;106767;1277;22759;-72
2022/04/02 07:06:22;;;;;;;8.30;6.20;;;;;;;-0.68;85.34;96981.94;106228;1277;137876;-70
2022/04/02 07:08:49;;;;;;;9.40;6.10;;;;;;;-0.68;85.24;96985.35;106656;1277;22535;-70
2022/04/02 07:11:16;;;;;;;6.30;5.50;;;;;;;-0.69;85.35;96988.15;106072;1277;25319;-70
2022/04/02 07:13:44;;;;;;;7.50;5.80;;;;;;;-0.70;85.54;96993.21;106079;1277;138507;-70
2022/04/02 07:16:11;;;;;;;10.80;6.60;;;;;;;-0.70;85.31;96993.13;106662;1277;22547;-70
2022/04/02 07:18:47;;;;;;;10.50;6.90;;;;;;;-0.71;85.30;96993.83;106364;1277;138242;-70
2022/04/02 07:21:29;;;;;;;7.50;6.40;;;;;;;-0.71;85.54;96995.84;106367;1277;22560;-70
2022/04/02 07:23:57;;;;;;;7.80;6.10;;;;;;;-0.67;85.31;96996.95;106409;1277;24272;-70
2022/04/02 07:26:25;;;;;;;8.00;5.10;;;;;;;-0.68;84.71;97002.21;106449;1277;138370;-70
2022/04/02 07:29:09;;;;;;;9.80;7.00;;;;;;;-0.70;85.16;96999.92;105691;1278;778576;-70
2022/04/02 07:31:36;;;;;;;8.70;6.10;;;;;;;-0.67;85.24;97004.81;106250;1278;138394;-70
2022/04/02 07:34:04;;;;;;;9.60;6.70;;;;;;;-0.65;85.05;97006.16;106303;1279;23076;-70
2022/04/02 07:37:08;;;;;;;9.70;6.80;;;;;;;-0.63;85.12;97008.70;106193;1277;138658;-70
2022/04/02 07:39:45;;;;;;;12.30;5.80;;;;;;;-0.60;85.16;97013.91;106117;1277;23132;-70
2022/04/02 07:42:23;;;;;;;9.20;6.00;;;;;;;-0.57;84.99;97016.13;105971;1280;138195;-69
2022/04/02 07:45:13;;;;;;;8.80;6.80;;;;;;;-0.57;84.63;97016.26;106520;1277;24435;-69
2022/04/02 07:47:56;;;;;;;8.20;5.90;;;;;;;-0.58;84.52;97014.58;106380;1277;22643;-69
2022/04/02 07:50:25;;;;;;;;;;;;;;;-0.59;84.45;97018.89;106440;1276;137274;-74
2022/04/02 07:53:11;;;;;;;8.70;6.20;;;;;;;-0.64;84.26;97022.20;106519;1277;23552;-70
2022/04/02 07:56:03;;;;;;;8.10;6.20;;;;;;;-0.67;84.38;97026.72;105938;1275;139006;-70
2022/04/02 07:58:32;;;;;;;10.80;6.60;;;;;;;-0.68;84.20;97024.34;106235;1277;24023;-70
2022/04/02 08:01:04;;;;;;;9.10;6.10;;;;;;;-0.70;84.29;97029.70;106138;1277;137725;-70
2022/04/02 08:03:32;;;;;;;8.50;6.60;;;;;;;-0.72;84.45;97032.52;106425;1277;25383;-70
2022/04/02 08:06:01;;;;;;;9.50;5.80;;;;;;;-0.70;84.52;97037.91;106319;1277;26152;-70
2022/04/02 08:08:29;;;;;;;8.90;6.80;;;;;;;-0.69;84.35;97033.05;106338;1277;138423;-75
2022/04/02 08:10:57;;;;;;;9.40;7.00;;;;;;;-0.69;84.31;97035.73;106572;1277;25274;-70
2022/04/02 08:13:24;;;;;;;8.60;5.60;;;;;;;-0.69;84.61;97033.35;106202;1277;137806;-70
2022/04/02 08:15:57;;;;;;;7.90;6.10;;;;;;;-0.68;84.09;97038.98;106171;1277;22534;-70
2022/04/02 08:18:39;;;;;;;7.80;5.70;;;;;;;-0.70;84.29;97045.11;106247;1277;138187;-73
2022/04/02 08:21:09;;;;;;;8.40;5.70;;;;;;;-0.73;84.39;97049.55;106352;1277;22541;-69
2022/04/02 08:23:51;;;;;;;10.40;8.10;;;;;;;-0.75;84.60;97048.82;106172;1277;23688;-70
2022/04/02 08:27:09;;;;;;;8.10;6.30;;;;;;;-0.73;84.97;97056.27;106248;1277;153453;-70
2022/04/02 08:29:38;;;;;;;8.20;6.30;;;;;;;-0.73;85.03;97057.17;106425;1277;22583;-69
2022/04/02 08:32:17;;;;;;;9.10;6.80;;;;;;;-0.75;84.80;97057.38;106301;1277;137649;-69
2022/04/02 08:35:10;;;;;;;11.30;7.60;;;;;;;-0.75;84.93;97059.30;106393;1276;23942;-69
2022/04/02 08:38:20;;;;;;;9.40;7.20;;;;;;;-0.71;85.21;97063.26;106172;1277;138535;-70
2022/04/02 08:41:18;;;;;;;9.00;6.40;;;;;;;-0.71;84.80;97065.75;106011;1278;22706;-70
2022/04/02 08:44:12;;;;;;;8.20;6.40;;;;;;;-0.72;84.68;97066.13;106192;1279;138474;-70
2022/04/02 08:47:31;;;;;;;10.50;7.10;;;;;;;-0.77;84.44;97066.67;106770;1277;22540;-70
2022/04/02 08:50:08;;;;;;;9.40;6.80;;;;;;;-0.77;84.77;97072.06;106356;1277;137822;-70
2022/04/02 08:52:56;;;;;;;8.40;5.70;;;;;;;-0.75;85.21;97072.71;106368;1277;22544;-70
2022/04/02 08:55:35;;;;;;;9.40;6.20;;;;;;;-0.75;84.73;97071.52;106297;1277;138319;-70
2022/04/02 08:58:09;;;;;;;10.50;7.70;;;;;;;-0.78;84.63;97076.62;106220;1277;22617;-70
2022/04/02 09:01:02;;;;;;;7.20;5.90;;;;;;;-0.81;84.43;97075.35;106169;1277;138556;-70
2022/04/02 09:04:05;;;;;;;9.40;6.60;;;;;;;-0.86;84.92;97082.55;106231;1277;22584;-70
2022/04/02 09:06:51;;;;;;;8.40;6.30;;;;;;;-0.86;85.07;97084.07;106269;1277;137467;-70
2022/04/02 09:09:43;;;;;;;10.80;8.40;;;;;;;-0.85;85.17;97083.16;106199;1277;22760;-70
2022/04/02 09:12:43;;;;;;;10.90;7.80;;;;;;;-0.82;85.31;97089.44;106273;1277;22571;-70
2022/04/02 09:15:33;;;;;;;10.90;8.10;;;;;;;-0.78;85.15;97093.07;105840;1277;22556;-70
2022/04/02 09:18:25;;;;;;;11.30;7.70;;;;;;;-0.78;84.99;97095.70;106053;1277;25367;-70
2022/04/02 09:21:16;;;;;;;9.50;7.00;;;;;;;-0.78;84.93;97093.60;105877;1277;138140;-70
2022/04/02 09:24:05;;;;;;;7.90;5.90;;;;;;;-0.77;85.44;97097.75;105835;1278;24231;-70
2022/04/02 09:26:57;;;;;;;11.40;8.10;;;;;;;-0.76;85.18;97101.76;105705;1277;137290;-70
2022/04/02 09:29:57;;;;;;;10.80;8.60;;;;;;;-0.80;84.55;97104.87;105829;1277;31915;-73
2022/04/02 09:32:43;;;;;;;11.40;7.80;;;;;;;-0.79;84.66;97105.23;105754;1277;138628;-71
2022/04/02 09:35:46;;;;;;;10.40;6.70;;;;;;;-0.81;84.19;97108.36;105868;1277;22697;-71
2022/04/02 09:38:56;;;;;;;9.50;6.50;;;;;;;-0.86;83.82;97114.70;106008;1277;137998;-75
2022/04/02 09:41:46;;;;;;;7.60;5.20;;;;;;;-0.90;84.16;97112.02;105871;1278;22616;-70
2022/04/02 09:44:33;;;;;;;8.60;6.70;;;;;;;-0.93;84.35;97120.38;105546;1279;138636;-71
2022/04/02 09:47:12;;;;;;;13.90;7.70;;;;;;;-0.91;84.68;97121.35;105749;1279;24286;-71
2022/04/02 09:50:09;;;;;;;10.40;7.60;;;;;;;-0.89;84.75;97119.91;105655;1277;137432;-72
2022/04/02 09:53:29;;;;;;;10.30;7.80;;;;;;;-0.89;85.09;97120.04;105938;1277;24313;-70
2022/04/02 09:56:32;;;;;;;8.40;6.80;;;;;;;-0.88;84.99;97128.92;105781;1277;138737;-68
2022/04/02 09:59:35;;;;;;;12.60;8.20;;;;;;;-0.89;85.16;97128.02;107073;1277;22630;-69
2022/04/02 10:02:05;;;;;;;6.90;5.20;;;;;;;-0.93;84.93;97128.89;105954;1278;137758;-69
2022/04/02 10:04:41;;;;;;;10.90;8.10;;;;;;;-0.98;84.74;97134.75;106815;1277;25253;-69
2022/04/02 10:07:17;;;;;;;11.70;8.50;;;;;;;-1.03;85.10;97131.63;106425;1277;138906;-69
2022/04/02 10:09:49;;;;;;;9.10;7.50;;;;;;;-1.05;85.15;97130.34;106642;1277;22702;-69
2022/04/02 10:12:18;;;;;;;14.50;10.20;;;;;;;-1.04;85.08;97129.77;106637;1280;22753;-70
2022/04/02 10:14:48;;;;;;;12.50;7.90;;;;;;;-1.06;84.95;97131.04;106385;1277;138083;-70
2022/04/02 10:17:32;;;;;;;11.00;8.70;;;;;;;-1.06;85.39;97135.64;106583;1277;22560;-70
2022/04/02 10:20:00;;;;;;;13.60;9.20;;;;;;;-1.07;85.16;97138.48;106487;1277;138769;-70
2022/04/02 10:22:43;;;;;;;12.10;8.20;;;;;;;-1.11;84.87;97138.60;107305;1277;23470;-71
2022/04/02 10:25:13;;;;;;;14.40;8.70;;;;;;;-1.10;85.13;97140.41;106748;1277;138441;-70
2022/04/02 10:27:42;;;;;;;12.20;8.70;;;;;;;-1.09;85.38;97141.23;105861;1280;24306;-70
2022/04/02 10:30:18;;;;;;;12.60;9.30;;;;;;;-1.10;85.13;97140.04;106233;1279;25366;-68
2022/04/02 10:32:48;;;;;;;12.90;10.10;;;;;;;-1.07;85.03;97143.09;105782;1278;139047;-70
2022/04/02 10:35:30;;;;;;;15.50;10.40;;;;;;;-1.06;85.13;97143.98;105791;1279;25414;-70
2022/04/02 10:38:22;;;;;;;15.60;10.40;;;;;;;-1.07;85.22;97147.02;105779;1278;138069;-71
2022/04/02 10:40:52;;;;;;;16.50;11.20;;;;;;;-1.11;85.28;97146.95;106074;1277;24189;-70
2022/04/02 10:43:36;;;;;;;16.50;10.80;;;;;;;-1.11;85.40;97147.93;105539;1279;139121;-71
2022/04/02 10:46:04;;;;;;;20.20;12.70;;;;;;;-1.14;85.40;97150.76;105906;1278;25365;-71
2022/04/02 10:48:46;;;;;;;17.00;10.90;;;;;;;-1.16;85.70;97152.03;105869;1277;22544;-70
2022/04/02 10:51:14;;;;;;;13.20;9.10;;;;;;;-1.17;85.67;97151.73;105697;1277;139339;-70
2022/04/02 10:53:44;;;;;;;11.00;7.20;;;;;;;-1.17;85.55;97157.36;105758;1280;25308;-70
2022/04/02 10:56:16;;;;;;;12.80;9.00;;;;;;;-1.20;85.31;97160.04;106472;1280;138193;-70
2022/04/02 10:58:48;;;;;;;12.80;8.50;;;;;;;-1.21;85.47;97160.77;106290;1280;22694;-70
2022/04/02 11:01:30;;;;;;;11.50;8.30;;;;;;;-1.24;85.42;97162.53;106566;1278;137688;-71
2022/04/02 11:03:57;;;;;;;12.40;9.60;;;;;;;-1.27;85.50;97162.81;106175;1280;22628;-71
2022/04/02 11:06:48;;;;;;;14.90;9.00;;;;;;;-1.28;85.27;97163.84;105971;1280;22540;-70
2022/04/02 11:09:39;;;;;;;11.40;7.20;;;;;;;-1.27;85.73;97167.61;105923;1280;138245;-71
2022/04/02 11:12:14;;;;;;;13.80;9.70;;;;;;;-1.25;85.43;97172.02;106172;1278;25298;-70
2022/04/02 11:14:44;;;;;;;12.30;8.80;;;;;;;-1.23;85.31;97172.52;105783;1278;137601;-72
2022/04/02 11:17:30;;;;;;;12.00;8.40;;;;;;;-1.23;84.98;97177.04;106078;1280;23415;-71
2022/04/02 11:20:23;;;;;;;15.50;10.80;;;;;;;-1.25;84.74;97176.24;105857;1279;138702;-71
2022/04/02 11:22:57;;;;;;;14.70;9.60;;;;;;;-1.24;84.98;97180.33;105953;1279;22670;-71
2022/04/02 11:25:34;;;;;;;15.10;11.30;;;;;;;-1.26;84.93;97181.02;105796;1279;139739;-71
2022/04/02 11:28:04;;;;;;;13.30;8.40;;;;;;;-1.27;85.01;97189.52;105731;1279;22721;-69
2022/04/02 11:30:53;;;;;;;14.00;10.20;;;;;;;-1.27;84.41;97184.91;106081;1278;24251;-70
2022/04/02 11:33:50;;;;;;;16.80;10.40;;;;;;;-1.26;84.63;97187.13;105820;1278;137524;-70
2022/04/02 11:36:23;;;;;;;17.90;11.50;;;;;;;-1.25;84.46;97191.78;106019;1278;24393;-70
2022/04/02 11:38:50;;;;;;;17.30;10.60;;;;;;;-1.24;84.75;97188.54;105910;1279;138472;-70
2022/04/02 11:41:41;;;;;;;15.20;9.60;;;;;;;-1.20;84.47;97191.80;106254;1278;24383;-70
2022/04/02 11:44:14;;;;;;;15.70;10.60;;;;;;;-1.18;84.10;97194.77;105914;1280;137570;-71
2022/04/02 11:46:59;;;;;;;15.00;10.30;;;;;;;-1.17;84.24;97196.16;105963;1278;22582;-71
2022/04/02 11:49:29;;;;;;;18.80;11.50;;;;;;;-1.12;84.23;97198.81;105872;1277;138690;-71
2022/04/02 11:52:25;;;;;;;14.90;11.10;;;;;;;-1.11;83.85;97198.69;106003;1280;22661;-71
2022/04/02 11:54:52;;;;;;;12.20;7.90;;;;;;;-1.11;83.65;97203.82;105838;1278;24217;-71
2022/04/02 11:57:34;;;;;;;12.80;8.80;;;;;;;-1.14;83.54;97200.48;105972;1278;137731;-70
2022/04/02 12:00:16;;;;;;;11.00;7.20;;;;;;;-1.14;83.39;97205.09;105833;1280;25418;-72
2022/04/02 12:02:43;;;;;;;11.90;8.70;;;;;;;-1.12;83.49;97206.08;105974;1279;137987;-71
2022/04/02 12:05:43;;;;;;;13.40;9.30;;;;;;;-1.09;83.89;97209.87;105896;1279;22557;-72
2022/04/02 12:08:29;;;;;;;17.30;10.60;;;;;;;-1.02;83.95;97210.75;105746;1280;137740;-71
2022/04/02 12:11:12;;;;;;;15.20;10.60;;;;;;;-0.97;83.55;97215.33;105764;1280;24250;-71
2022/04/02 12:13:53;;;;;;;;;;;;;;;-0.93;83.63;97213.44;105554;1281;138595;-73